Weather History for KTTF - January, 2014

Change the Weather History Date:

Saturday, January 11, 2014

  Actual Average Record
Temperature  
Mean Temperature 38 °F -  
Max Temperature 42 °F 29 °F 60 °F (2013)
Min Temperature 33 °F 15 °F -10 °F (1982)
Degree Days  
Heating Degree Days 26    
Moisture  
Dew Point 37 °F    
Average Humidity 94    
Maximum Humidity 100    
Minimum Humidity 75    
Precipitation  
Precipitation 0.00 in - - ()
Sea Level Pressure  
Sea Level Pressure 29.48 in    
Wind  
Wind Speed 10 mph (SW)    
Max Wind Speed 20 mph    
Max Gust Speed 30 mph    
Visibility 5 miles    
Events Fog , Rain    
Averages and records for this station are not official NWS values.
T = Trace of Precipitation, MM = Missing Value Source: NWS Daily Summary

Daily Weather History Graph

Daily Weather History Graph

Search for Another Location

Airport or City:

Trip Planner

Search our weather history database for the weather conditions in past years. The results will help you decide how hot, cold, wet, or windy it might be!

Date:

Astronomy

Jan. 11, 2014 Rise Set
Actual Time 8:00 AM EST 5:23 PM EST
Civil Twilight 7:29 AM EST 5:54 PM EST
Nautical Twilight 6:54 AM EST 6:28 PM EST
Astronomical Twilight 6:21 AM EST 7:02 PM EST
Moon 2:07 PM EST (1/11) 4:03 AM EST (1/11)
Length of Visible Light 10h 24m
Length of Day
9h 22m
Waxing Gibbous, 83% of the Moon is Illuminated
Jan 11
Waxing Gibbous
Jan 15
Full
Jan 24
Last Quarter
Jan 30
New
Feb 6
First Quarter

Hourly Weather History & Observations

Time (EST) Temp. Windchill Dew Point Humidity Pressure Visibility Wind Dir Wind Speed Gust Speed Precip Events Conditions
12:12 AM 37.4 °F 33.8 °F 37.4 °F 100% 29.65 in 0.8 mi SE 4.6 mph - N/A Rain Light Rain
12:32 AM 39.2 °F 34.2 °F 37.4 °F 93% 29.64 in 1.0 mi SSE 6.9 mph - N/A Rain Light Rain
12:52 AM 39.2 °F 34.2 °F 39.2 °F 100% 29.63 in 1.0 mi South 6.9 mph - N/A Rain Rain
1:12 AM 39.2 °F 33.0 °F 39.2 °F 100% 29.61 in 1.5 mi South 9.2 mph - N/A Rain Light Rain
1:32 AM 39.2 °F 33.6 °F 39.2 °F 100% 29.60 in 2.0 mi South 8.1 mph - N/A Rain Light Rain
1:52 AM 41.0 °F 35.8 °F 41.0 °F 100% 29.59 in 2.5 mi South 8.1 mph - N/A Rain Rain
2:13 AM 41.0 °F 35.8 °F 41.0 °F 100% 29.58 in 3.0 mi South 8.1 mph - N/A Rain Rain
2:33 AM 42.8 °F 37.5 °F 42.8 °F 100% 29.57 in 4.0 mi South 9.2 mph - N/A   Drizzle
2:53 AM 42.8 °F 36.2 °F 42.8 °F 100% 29.57 in 4.0 mi South 12.7 mph 17.3 mph N/A   Light Drizzle
3:13 AM 42.8 °F 37.0 °F 42.8 °F 100% 29.56 in 4.0 mi SSW 10.4 mph - N/A   Drizzle
3:33 AM 42.8 °F 37.0 °F 42.8 °F 100% 29.55 in 4.0 mi SSW 10.4 mph - N/A   Light Drizzle
3:53 AM 42.8 °F 37.5 °F 42.8 °F 100% 29.52 in 2.5 mi South 9.2 mph - N/A Rain Rain
4:13 AM 42.8 °F 38.0 °F 42.8 °F 100% 29.52 in 2.5 mi SSW 8.1 mph - N/A   Overcast
4:33 AM 42.8 °F 38.0 °F 42.8 °F 100% 29.51 in 2.5 mi SSW 8.1 mph - N/A   Overcast
4:54 AM 41.0 °F 37.1 °F 41.0 °F 100% 29.51 in 1.8 mi SSW 5.8 mph - N/A   Overcast
5:14 AM 41.0 °F 35.8 °F 41.0 °F 100% 29.49 in 2.0 mi SSW 8.1 mph - N/A   Overcast
5:34 AM 41.0 °F 35.2 °F 41.0 °F 100% 29.49 in 1.5 mi South 9.2 mph - N/A   Overcast
5:54 AM 41.0 °F 35.8 °F 41.0 °F 100% 29.48 in 0.5 mi South 8.1 mph - N/A Fog Fog
6:14 AM 41.0 °F 34.7 °F 41.0 °F 100% 29.48 in 0.5 mi South 10.4 mph - N/A Fog Fog
6:34 AM 41.0 °F 35.2 °F 41.0 °F 100% 29.47 in 0.2 mi South 9.2 mph - N/A Fog Fog
6:54 AM 41.0 °F 35.2 °F 41.0 °F 100% 29.45 in 0.2 mi South 9.2 mph - N/A Fog Fog
7:14 AM 41.0 °F 36.4 °F 41.0 °F 100% 29.44 in 0.2 mi South 6.9 mph - N/A Fog Fog
7:34 AM 39.2 °F - 39.2 °F 100% 29.43 in 0.2 mi Calm Calm - N/A Fog Fog
7:54 AM 41.0 °F - 41.0 °F 100% 29.42 in 0.2 mi Calm Calm - N/A Fog Fog
8:15 AM 41.0 °F - 41.0 °F 100% 29.40 in 0.2 mi Calm Calm - N/A Fog Fog
8:35 AM 41.0 °F - 41.0 °F 100% 29.40 in 0.2 mi Calm Calm - N/A Fog Fog
8:55 AM 41.0 °F - 41.0 °F 100% 29.39 in 0.2 mi Calm Calm - N/A   Heavy Drizzle
9:15 AM 39.2 °F - 39.2 °F 100% 29.38 in 0.2 mi Calm Calm - N/A   Drizzle
9:35 AM 39.2 °F - 39.2 °F 100% 29.38 in 0.2 mi Calm Calm - N/A   Drizzle
9:55 AM 41.0 °F - 41.0 °F 100% 29.38 in 0.2 mi Calm Calm - N/A Rain Rain
10:15 AM 42.8 °F 38.0 °F 42.8 °F 100% 29.36 in 0.2 mi SSW 8.1 mph - N/A   Drizzle
10:35 AM 42.8 °F 36.2 °F 42.8 °F 100% 29.36 in 1.8 mi SW 12.7 mph - N/A   Drizzle
10:55 AM 42.8 °F - 42.8 °F 100% 29.36 in 1.8 mi Calm Calm - N/A Rain Light Rain
11:16 AM 42.8 °F 36.6 °F 42.8 °F 100% 29.36 in 5.0 mi WSW 11.5 mph - N/A   Overcast
11:36 AM 41.0 °F 33.1 °F 41.0 °F 100% 29.36 in 5.0 mi WSW 15.0 mph - N/A   Overcast
11:56 AM 41.0 °F 33.5 °F 41.0 °F 100% 29.34 in 4.0 mi West 13.8 mph 19.6 mph N/A   Overcast
12:16 PM 41.0 °F 33.5 °F 41.0 °F 100% 29.33 in 2.5 mi WSW 13.8 mph 23.0 mph N/A   Overcast
12:36 PM 41.0 °F 33.5 °F 41.0 °F 100% 29.33 in 1.8 mi WSW 13.8 mph 19.6 mph N/A   Overcast
12:56 PM 39.2 °F 31.6 °F 39.2 °F 100% 29.32 in 1.0 mi WSW 12.7 mph 18.4 mph N/A   Overcast
1:16 PM 39.2 °F 31.6 °F 39.2 °F 100% 29.33 in 2.5 mi SW 12.7 mph 17.3 mph N/A   Overcast
1:36 PM 39.2 °F 30.8 °F 39.2 °F 100% 29.33 in 4.0 mi WSW 15.0 mph - N/A   Overcast
1:56 PM 39.2 °F 29.8 °F 39.2 °F 100% 29.34 in 3.0 mi WSW 18.4 mph - N/A Rain Rain
2:16 PM 37.4 °F 27.5 °F 37.4 °F 100% 29.35 in 4.0 mi WSW 18.4 mph - N/A   Light Drizzle
2:37 PM 37.4 °F 27.5 °F 37.4 °F 100% 29.36 in 1.8 mi WSW 18.4 mph 21.9 mph N/A Rain Light Rain
2:57 PM 37.4 °F 28.9 °F 37.4 °F 100% 29.36 in 5.0 mi WSW 13.8 mph - N/A   Light Drizzle
3:12 PM 37.4 °F 27.8 °F 37.4 °F 100% 29.38 in 7.0 mi West 17.3 mph 24.2 mph N/A   Overcast
3:32 PM 37.4 °F 27.2 °F 35.6 °F 93% 29.39 in 7.0 mi West 19.6 mph 29.9 mph N/A   Overcast
3:52 PM 37.4 °F 27.5 °F 33.8 °F 87% 29.40 in 10.0 mi West 18.4 mph 26.5 mph N/A   Overcast
4:12 PM 35.6 °F 26.2 °F 33.8 °F 93% 29.42 in 10.0 mi West 15.0 mph - N/A   Overcast
4:32 PM 35.6 °F 25.5 °F 33.8 °F 93% 29.43 in 10.0 mi West 17.3 mph 21.9 mph N/A   Overcast
4:52 PM 35.6 °F 25.9 °F 32.0 °F 87% 29.44 in 10.0 mi West 16.1 mph 23.0 mph N/A   Overcast
5:12 PM 35.6 °F 25.9 °F 32.0 °F 87% 29.45 in 10.0 mi West 16.1 mph 20.7 mph N/A   Overcast
5:32 PM 35.6 °F 26.6 °F 32.0 °F 87% 29.46 in 10.0 mi WSW 13.8 mph - N/A   Overcast
5:52 PM 35.6 °F 25.5 °F 32.0 °F 87% 29.47 in 10.0 mi West 17.3 mph - N/A   Overcast
6:13 PM 35.6 °F 25.2 °F 32.0 °F 87% 29.48 in 10.0 mi West 18.4 mph 25.3 mph N/A   Overcast
6:33 PM 35.6 °F 25.2 °F 32.0 °F 87% 29.49 in 10.0 mi West 18.4 mph 24.2 mph N/A   Overcast
6:53 PM 35.6 °F 25.2 °F 32.0 °F 87% 29.50 in 10.0 mi West 18.4 mph 24.2 mph N/A   Overcast
7:13 PM 35.6 °F 25.9 °F 32.0 °F 87% 29.51 in 7.0 mi West 16.1 mph 20.7 mph N/A   Overcast
7:33 PM 35.6 °F 25.5 °F 32.0 °F 87% 29.52 in 10.0 mi West 17.3 mph 21.9 mph N/A   Overcast
7:53 PM 35.6 °F 25.2 °F 30.2 °F 81% 29.54 in 10.0 mi West 18.4 mph 24.2 mph N/A   Overcast
8:13 PM 35.6 °F 24.8 °F 30.2 °F 81% 29.55 in 10.0 mi West 19.6 mph 27.6 mph N/A   Overcast
8:33 PM 35.6 °F 25.2 °F 30.2 °F 81% 29.56 in 10.0 mi West 18.4 mph 27.6 mph N/A   Overcast
8:54 PM 35.6 °F 25.9 °F 30.2 °F 81% 29.57 in 10.0 mi West 16.1 mph 23.0 mph N/A   Overcast
9:14 PM 35.6 °F 25.9 °F 28.4 °F 75% 29.59 in 10.0 mi West 16.1 mph - N/A   Overcast
9:34 PM 35.6 °F 25.5 °F 28.4 °F 75% 29.60 in 10.0 mi West 17.3 mph 27.6 mph N/A   Overcast
9:54 PM 35.6 °F 26.2 °F 28.4 °F 75% 29.61 in 10.0 mi West 15.0 mph 21.9 mph N/A   Overcast
10:14 PM 35.6 °F 27.1 °F 28.4 °F 75% 29.62 in 10.0 mi West 12.7 mph 17.3 mph N/A   Overcast
10:34 PM 35.6 °F 26.2 °F 28.4 °F 75% 29.63 in 10.0 mi West 15.0 mph 19.6 mph N/A   Overcast
10:54 PM 35.6 °F 27.1 °F 28.4 °F 75% 29.64 in 10.0 mi West 12.7 mph 24.2 mph N/A   Overcast
11:14 PM 35.6 °F 26.2 °F 28.4 °F 75% 29.64 in 10.0 mi West 15.0 mph 24.2 mph N/A   Overcast
11:34 PM 35.6 °F 26.6 °F 28.4 °F 75% 29.65 in 10.0 mi West 13.8 mph 18.4 mph N/A   Overcast
11:54 PM 33.8 °F 23.9 °F 28.4 °F 81% 29.65 in 7.0 mi West 15.0 mph 23.0 mph N/A   Overcast